Kezdőlap
METAR-TAF:

METAR-TAF

Repülőterek :

Zágráb-Franjo Tuđman repülőtér

Zágráb, Horvátország

földrajzi szélesség: 45-44N, földrajzi hosszúság: 016-04E, magasság: 106 m

Jelenlegi meteorológiai megfigyelések

A jelentés 26 perccel ezelõtt készült, 04:00 UTC
Délnyugati szél 3 kt
Hőmérséklet 13°C
Páratartalom 94%
Légköri nyomás 1020 hPa
Látótávolság 10 km, vagy több
csekély köd

METAR: LDZA 200400Z 23003KT 9999 MIFG NSC 13/12 Q1020 NOSIG

Idő: 06:26 (04:26 UTC)

Előrejelzés

A jelentés 5 órával és 1 perccel ezelõtt készült, 23:25 UTC
Az előrejelzés 20-én 00 óra UTC és 21-én 00 óra UTC között érvényes
Keleti szél 5 kt
Látótávolság 10 km, vagy több
felhőtlen 1500 m magasságban, és nincs gomolyfelhõ

TAF: LDZA 192325Z 2000/2100 08005KT CAVOK TX29/2013Z TN12/2004Z

Meteorológiai megfigyelések és előrejelzések több, mint 4000 repülőtéren (METAR és TAF jelentéseket).

A térképen piros és sárga pontok jelzik az elérhető meteorológiai állomásokat.

Mozgassa az egeret a pont fölött, hogy megjelenjen az állomás neve.

Azután kattintson az időjárási megfigyelések és előrejelzések megtekintéséhez.

A térkép megváltoztatása: kattintson a fekete keresztel jelölt zöld gombra ráközelítéshez, a vonallal jelölt zöld gombra távolításhoz, vagy a zöld nyilakra a szomszédos térképek eléréséhez.


METAR-TAF: